Time;durP1;ratioP1;P1;durP2;ratioP2;P2;SDS_P1;SDS_P2;PMS_P1;PMS_P2;Temp;Humidity;BMP_temperature;BMP_pressure;BME280_temperature;BME280_humidity;BME280_pressure;Samples;Min_cycle;Max_cycle;Signal;HPM_P1;HPM_P2
2022/11/29 00:00:39;;;;;;;;;;;;;;;8.85;84.39;100276.22;5006140;28;19914;-70
2022/11/29 00:03:05;;;;;;;;;;;;;;;8.77;84.38;100276.06;5007961;28;19937;-70
2022/11/29 00:05:32;;;;;;;;;;;;;;;8.86;84.20;100267.31;5001096;28;19913;-71
2022/11/29 00:07:58;;;;;;;;;;;;;;;8.98;83.48;100264.53;5006412;28;20142;-67
2022/11/29 00:10:23;;;;;;;;;;;;;;;8.97;83.87;100269.00;5005990;28;19941;-67
2022/11/29 00:12:48;;;;;;;;;;;;;;;8.81;83.97;100263.41;5006220;28;19929;-67
2022/11/29 00:15:14;;;;;;;;;;;;;;;8.91;84.93;100264.25;5005735;28;20176;-70
2022/11/29 00:17:39;;;;;;;;;;;;;;;8.85;84.07;100268.28;5006334;28;19932;-71
2022/11/29 00:20:05;;;;;;;;;;;;;;;8.86;84.55;100267.31;5007163;28;19913;-72
2022/11/29 00:22:30;;;;;;;;;;;;;;;8.75;85.50;100271.91;5005797;28;20107;-67
2022/11/29 00:24:55;;;;;;;;;;;;;;;8.80;85.17;100262.59;5006791;28;19968;-67
2022/11/29 00:27:21;;;;;;;;;;;;;;;8.73;85.20;100268.56;5005412;28;19925;-70
2022/11/29 00:29:46;;;;;;;;;;;;;;;8.62;85.46;100265.06;5015540;28;19948;-70
2022/11/29 00:32:11;;;;;;;;;;;;;;;8.61;86.58;100271.31;5005484;28;20214;-67
2022/11/29 00:34:36;;;;;;;;;;;;;;;8.69;86.10;100272.44;5008016;28;19914;-71
2022/11/29 00:37:02;;;;;;;;;;;;;;;8.66;85.96;100270.91;5005700;28;19977;-69
2022/11/29 00:39:27;;;;;;;;;;;;;;;8.60;87.04;100263.53;5006293;28;19921;-67
2022/11/29 00:41:52;;;;;;;;;;;;;;;8.56;86.76;100264.78;5007782;28;19965;-72
2022/11/29 00:44:18;;;;;;;;;;;;;;;8.72;86.26;100266.88;5005856;28;19914;-71
2022/11/29 00:46:43;;;;;;;;;;;;;;;8.81;85.64;100266.06;5006278;28;19961;-71
2022/11/29 00:49:08;;;;;;;;;;;;;;;8.82;85.48;100260.66;5018954;28;19994;-70
2022/11/29 00:51:34;;;;;;;;;;;;;;;8.97;83.93;100261.06;5006585;28;20183;-70
2022/11/29 00:53:59;;;;;;;;;;;;;;;8.64;85.22;100260.50;5006901;28;20131;-67
2022/11/29 00:56:24;;;;;;;;;;;;;;;8.70;85.89;100253.81;5006511;28;19955;-67
2022/11/29 00:58:50;;;;;;;;;;;;;;;8.70;84.82;100243.25;5006837;28;19925;-67
2022/11/29 01:01:15;;;;;;;;;;;;;;;8.79;85.53;100250.34;5011022;28;20084;-71
2022/11/29 01:03:40;;;;;;;;;;;;;;;8.62;86.10;100256.31;5009132;28;19964;-67
2022/11/29 01:06:07;;;;;;;;;;;;;;;8.69;86.01;100246.88;5010674;28;19921;-72
2022/11/29 01:08:33;;;;;;;;;;;;;;;8.68;85.69;100242.56;5018129;28;20249;-70
2022/11/29 01:11:06;;;;;;;;;;;;;;;8.56;86.40;100235.75;5010009;28;19921;-70
2022/11/29 01:13:32;;;;;;;;;;;;;;;8.53;86.53;100236.84;5010527;28;19926;-70
2022/11/29 01:15:57;;;;;;;;;;;;;;;8.48;87.12;100227.69;5007369;28;19928;-67
2022/11/29 01:18:23;;;;;;;;;;;;;;;8.19;88.69;100228.41;5011268;28;19956;-67
2022/11/29 01:20:59;;;;;;;;;;;;;;;8.33;88.43;100221.97;5008875;28;19928;-68
2022/11/29 01:23:24;;;;;;;;;;;;;;;8.44;88.29;100221.00;5009150;28;19921;-67
2022/11/29 01:26:22;;;;;;;;;;;;;;;8.48;87.56;100223.25;5010577;28;20434;-68
2022/11/29 01:28:48;;;;;;;;;;;;;;;8.42;87.55;100221.16;4994245;28;19921;-67
2022/11/29 01:31:16;;;;;;;;;;;;;;;8.62;86.17;100222.84;5009534;28;19922;-67
2022/11/29 01:33:41;;;;;;;;;;;;;;;8.38;87.02;100232.09;5008983;28;19917;-70
2022/11/29 01:36:07;;;;;;;;;;;;;;;8.46;87.30;100227.81;5009601;28;20279;-70
2022/11/29 01:38:33;;;;;;;;;;;;;;;8.54;86.43;100229.78;5009335;28;19925;-70
2022/11/29 01:41:04;;;;;;;;;;;;;;;8.43;87.35;100228.09;5009952;28;20028;-67
2022/11/29 01:43:29;;;;;;;;;;;;;;;8.52;87.66;100231.72;5009261;28;19988;-67
2022/11/29 01:45:55;;;;;;;;;;;;;;;8.50;86.80;100231.03;5009192;28;19944;-67
2022/11/29 01:48:23;;;;;;;;;;;;;;;8.41;87.15;100226.56;5009130;28;19918;-69
2022/11/29 01:50:48;;;;;;;;;;;;;;;8.44;87.80;100227.13;5008517;28;20204;-71
2022/11/29 01:53:14;;;;;;;;;;;;;;;8.50;87.40;100225.75;5010326;28;19926;-72
2022/11/29 01:55:42;;;;;;;;;;;;;;;8.48;87.14;100219.75;5008456;28;19941;-71
2022/11/29 01:58:08;;;;;;;;;;;;;;;8.49;86.96;100221.44;5009936;28;19988;-68
2022/11/29 02:00:33;;;;;;;;;;;;;;;8.50;86.48;100220.47;5008002;28;19914;-70
2022/11/29 02:03:18;;;;;;;;;;;;;;;8.52;86.78;100222.00;5018098;28;19992;-67
2022/11/29 02:05:46;;;;;;;;;;;;;;;8.59;87.42;100214.34;5009604;28;20479;-70
2022/11/29 02:08:13;;;;;;;;;;;;;;;8.57;87.12;100211.84;5009031;28;19925;-67
2022/11/29 02:10:38;;;;;;;;;;;;;;;8.45;87.16;100206.84;5007241;28;19913;-67
2022/11/29 02:13:03;;;;;;;;;;;;;;;8.41;88.20;100203.66;5009042;28;19960;-71
2022/11/29 02:15:45;;;;;;;;;;;;;;;8.62;87.24;100206.16;5007357;28;19936;-67
2022/11/29 02:18:13;;;;;;;;;;;;;;;8.55;87.28;100208.53;5015898;28;20032;-71
2022/11/29 02:20:50;;;;;;;;;;;;;;;8.62;86.35;100201.72;5009276;28;20405;-71
2022/11/29 02:23:21;;;;;;;;;;;;;;;8.59;86.85;100215.19;5009591;28;19917;-67
2022/11/29 02:25:59;;;;;;;;;;;;;;;8.59;86.36;100217.00;5007805;28;19948;-71
2022/11/29 02:28:36;;;;;;;;;;;;;;;8.59;86.19;100214.34;5009152;28;19921;-68
2022/11/29 02:31:10;;;;;;;;;;;;;;;8.58;86.91;100213.53;5009286;28;19921;-70
2022/11/29 02:33:36;;;;;;;;;;;;;;;8.56;87.43;100212.00;5009213;28;19917;-71
2022/11/29 02:36:07;;;;;;;;;;;;;;;8.76;86.51;100208.38;5007921;28;19914;-71
2022/11/29 02:38:51;;;;;;;;;;;;;;;8.77;85.64;100219.78;5008313;28;19932;-68
2022/11/29 02:41:34;;;;;;;;;;;;;;;8.67;86.18;100211.88;5008852;28;19930;-71
2022/11/29 02:44:18;;;;;;;;;;;;;;;8.55;86.32;100218.25;5010080;28;20076;-67
2022/11/29 02:46:50;;;;;;;;;;;;;;;8.56;86.74;100212.00;5009574;28;20249;-67
2022/11/29 02:49:15;;;;;;;;;;;;;;;8.53;87.22;100212.28;5008183;28;19940;-71
2022/11/29 02:51:52;;;;;;;;;;;;;;;8.60;86.50;100216.84;5007861;28;20671;-68
2022/11/29 02:54:27;;;;;;;;;;;;;;;8.52;87.31;100216.72;5008502;28;19929;-67
2022/11/29 02:57:07;;;;;;;;;;;;;;;8.43;88.29;100220.19;5008190;28;19933;-71
2022/11/29 02:59:35;;;;;;;;;;;;;;;8.39;89.08;100217.94;5009358;28;19913;-68
2022/11/29 03:02:21;;;;;;;;;;;;;;;8.47;88.62;100215.47;5007114;28;19920;-67
2022/11/29 03:05:13;;;;;;;;;;;;;;;8.27;89.77;100222.44;5005723;28;19914;-67
2022/11/29 03:07:43;;;;;;;;;;;;;;;8.46;88.79;100227.81;4989629;28;19917;-70
2022/11/29 03:10:29;;;;;;;;;;;;;;;8.48;88.57;100228.50;5007248;28;19997;-67
2022/11/29 03:12:56;;;;;;;;;;;;;;;8.55;88.00;100224.34;5008782;28;19964;-67
2022/11/29 03:15:40;;;;;;;;;;;;;;;8.40;88.72;100228.38;5007581;28;19926;-70
2022/11/29 03:18:08;;;;;;;;;;;;;;;8.59;88.45;100230.19;5016955;28;20115;-67
2022/11/29 03:20:37;;;;;;;;;;;;;;;8.55;88.21;100223.53;5007067;28;19914;-71
2022/11/29 03:23:25;;;;;;;;;;;;;;;8.56;88.35;100223.38;5006656;28;19971;-71
2022/11/29 03:25:58;;;;;;;;;;;;;;;8.48;88.54;100222.41;5001532;28;19914;-68
2022/11/29 03:28:32;;;;;;;;;;;;;;;8.49;88.80;100224.06;5008392;28;19957;-68
2022/11/29 03:31:05;;;;;;;;;;;;;;;8.45;89.06;100226.16;5007715;28;20223;-67
2022/11/29 03:33:40;;;;;;;;;;;;;;;8.25;88.99;100227.03;5008466;28;19959;-71
2022/11/29 03:36:19;;;;;;;;;;;;;;;8.41;89.24;100230.03;5006607;28;19920;-70
2022/11/29 03:38:46;;;;;;;;;;;;;;;8.42;88.85;100225.59;4990104;28;19948;-70
2022/11/29 03:41:38;;;;;;;;;;;;;;;8.48;89.37;100219.75;5007743;28;19992;-67
2022/11/29 03:44:16;;;;;;;;;;;;;;;8.39;89.01;100220.59;5007610;28;20024;-72
2022/11/29 03:46:46;;;;;;;;;;;;;;;8.35;89.20;100222.66;5007962;28;21149;-68
2022/11/29 03:49:19;;;;;;;;;;;;;;;8.50;89.18;100221.28;5006417;28;20049;-68
2022/11/29 03:52:09;;;;;;;;;;;;;;;8.34;89.29;100223.63;5007577;28;19968;-68
2022/11/29 03:54:49;;;;;;;;;;;;;;;8.12;90.18;100226.44;5007294;28;19925;-71
2022/11/29 03:57:19;;;;;;;;;;;;;;;8.25;90.93;100222.56;5008083;28;20199;-67
2022/11/29 03:59:44;;;;;;;;;;;;;;;8.30;89.96;100223.00;5006846;28;20110;-72
2022/11/29 04:02:22;;;;;;;;;;;;;;;8.21;90.47;100222.97;5006565;28;19917;-67
2022/11/29 04:05:06;;;;;;;;;;;;;;;8.36;90.15;100224.34;5007086;28;19928;-71
2022/11/29 04:07:43;;;;;;;;;;;;;;;8.34;90.26;100220.16;5007242;28;19940;-68
2022/11/29 04:10:19;;;;;;;;;;;;;;;8.32;89.74;100229.00;5007274;28;19948;-67
2022/11/29 04:12:47;;;;;;;;;;;;;;;8.17;90.63;100229.50;5007072;28;19954;-70
2022/11/29 04:15:31;;;;;;;;;;;;;;;8.40;89.65;100232.81;5006123;28;19917;-68
2022/11/29 04:17:56;;;;;;;;;;;;;;;8.24;90.91;100234.09;5006251;28;19918;-70
2022/11/29 04:20:34;;;;;;;;;;;;;;;8.23;90.99;100223.69;4998591;28;19913;-67
2022/11/29 04:23:31;;;;;;;;;;;;;;;8.24;90.84;100231.47;5006362;28;19918;-67
2022/11/29 04:26:20;;;;;;;;;;;;;;;8.47;89.00;100231.28;4984267;28;19921;-67
2022/11/29 04:28:45;;;;;;;;;;;;;;;8.45;89.12;100226.16;5002582;28;20184;-72
2022/11/29 04:31:29;;;;;;;;;;;;;;;8.32;89.34;100223.72;4998823;28;20257;-67
2022/11/29 04:34:13;;;;;;;;;;;;;;;8.38;89.72;100229.47;5005553;28;19921;-70
2022/11/29 04:36:44;;;;;;;;;;;;;;;8.30;89.58;100224.81;5006133;28;20084;-67
2022/11/29 04:39:15;;;;;;;;;;;;;;;8.33;90.68;100229.88;5006147;28;19959;-67
2022/11/29 04:41:48;;;;;;;;;;;;;;;8.45;89.82;100230.59;5007041;28;19960;-70
2022/11/29 04:44:19;;;;;;;;;;;;;;;8.30;90.40;100235.38;5016137;28;20005;-71
2022/11/29 04:47:00;;;;;;;;;;;;;;;8.39;90.55;100239.06;5005200;28;20107;-70
2022/11/29 04:49:37;;;;;;;;;;;;;;;8.45;89.62;100238.50;5006310;28;20071;-71
2022/11/29 04:52:08;;;;;;;;;;;;;;;8.42;90.67;100234.34;5007255;28;19913;-71
2022/11/29 04:54:57;;;;;;;;;;;;;;;8.19;92.07;100236.31;5006875;28;19921;-67
2022/11/29 04:57:40;;;;;;;;;;;;;;;8.29;91.30;100239.81;4999701;28;19925;-68
2022/11/29 05:00:08;;;;;;;;;;;;;;;8.31;91.17;100242.31;5007184;28;20095;-67
2022/11/29 05:02:52;;;;;;;;;;;;;;;8.42;90.94;100244.06;5007232;28;19918;-71
2022/11/29 05:05:23;;;;;;;;;;;;;;;8.24;90.89;100244.66;5006098;28;19914;-71
2022/11/29 05:08:01;;;;;;;;;;;;;;;8.11;91.86;100245.88;5005152;28;19918;-71
2022/11/29 05:10:32;;;;;;;;;;;;;;;7.95;91.96;100255.09;4989109;28;19960;-67
2022/11/29 05:13:16;;;;;;;;;;;;;;;7.91;93.28;100250.22;5006602;28;19971;-67
2022/11/29 05:15:42;;;;;;;;;;;;;;;8.00;93.48;100255.53;4997861;28;19957;-67
2022/11/29 05:18:07;;;;;;;;;;;;;;;8.05;92.79;100257.78;5004943;28;19945;-71
2022/11/29 05:20:55;;;;;;;;;;;;;;;8.04;93.72;100265.81;5006751;28;20088;-71
2022/11/29 05:23:30;;;;;;;;;;;;;;;8.22;93.62;100258.94;4984518;28;19978;-67
2022/11/29 05:26:01;;;;;;;;;;;;;;;8.42;91.91;100266.00;5006657;28;19922;-67
2022/11/29 05:28:26;;;;;;;;;;;;;;;8.37;91.88;100260.31;5005126;28;19917;-70
2022/11/29 05:31:10;;;;;;;;;;;;;;;8.31;91.54;100261.59;4988370;28;19933;-67
2022/11/29 05:33:47;;;;;;;;;;;;;;;8.28;92.92;100264.53;5003889;28;19917;-67
2022/11/29 05:36:37;;;;;;;;;;;;;;;8.47;92.09;100270.88;5006898;28;20118;-67
2022/11/29 05:39:05;;;;;;;;;;;;;;;8.42;91.38;100278.38;5005817;28;19925;-68
2022/11/29 05:41:33;;;;;;;;;;;;;;;8.30;92.33;100278.41;4998027;28;19949;-68
2022/11/29 05:44:07;;;;;;;;;;;;;;;8.38;92.31;100276.97;5006048;28;19932;-71
2022/11/29 05:46:38;;;;;;;;;;;;;;;8.41;92.19;100280.16;5011622;28;19913;-71
2022/11/29 05:49:17;;;;;;;;;;;;;;;7.98;93.27;100277.75;5022190;28;19929;-67
2022/11/29 05:52:11;;;;;;;;;;;;;;;8.18;93.05;100278.66;5022892;28;19967;-68
2022/11/29 05:54:42;;;;;;;;;;;;;;;8.49;91.85;100276.84;4985584;28;19925;-70
2022/11/29 05:57:22;;;;;;;;;;;;;;;8.39;92.32;100286.56;5022433;28;20201;-70
2022/11/29 05:59:49;;;;;;;;;;;;;;;8.51;91.96;100288.09;5023696;28;19914;-70
2022/11/29 06:02:22;;;;;;;;;;;;;;;8.47;91.72;100286.72;5025766;28;20199;-71
2022/11/29 06:04:54;;;;;;;;;;;;;;;8.49;90.74;100282.97;5025672;28;19951;-67
2022/11/29 06:07:26;;;;;;;;;;;;;;;8.26;91.93;100276.19;5025545;28;19914;-67
2022/11/29 06:10:05;;;;;;;;;;;;;;;8.34;91.68;100276.41;5025714;28;19925;-67
2022/11/29 06:12:34;;;;;;;;;;;;;;;8.23;92.06;100274.63;5025654;28;19975;-71
2022/11/29 06:15:10;;;;;;;;;;;;;;;8.44;91.51;100282.53;5011740;28;19920;-67
2022/11/29 06:17:35;;;;;;;;;;;;;;;8.47;91.60;100284.06;5007924;28;19956;-67
2022/11/29 06:20:03;;;;;;;;;;;;;;;8.54;91.17;100286.03;5025233;28;19920;-70
2022/11/29 06:22:47;;;;;;;;;;;;;;;8.59;90.42;100288.25;5025283;28;19967;-70
2022/11/29 06:25:31;;;;;;;;;;;;;;;8.62;90.93;100286.19;5007842;28;20207;-71
2022/11/29 06:27:57;;;;;;;;;;;;;;;8.70;91.07;100284.66;5025514;28;19920;-67
2022/11/29 06:30:28;;;;;;;;;;;;;;;8.67;90.98;100285.78;5025227;28;20202;-67
2022/11/29 06:33:00;;;;;;;;;;;;;;;8.58;90.59;100284.78;5025143;28;19920;-70
2022/11/29 06:35:45;;;;;;;;;;;;;;;8.61;90.34;100281.88;5007633;28;19920;-71
2022/11/29 06:38:27;;;;;;;;;;;;;;;8.51;90.55;100282.84;5007450;28;19959;-67
2022/11/29 06:40:53;;;;;;;;;;;;;;;8.58;90.87;100290.06;5024887;28;19984;-67
2022/11/29 06:43:18;;;;;;;;;;;;;;;8.55;90.69;100279.78;5024709;28;19921;-68
2022/11/29 06:45:49;;;;;;;;;;;;;;;8.46;91.35;100283.25;5024797;28;19913;-70
2022/11/29 06:48:19;;;;;;;;;;;;;;;8.39;92.00;100282.09;5025032;28;19921;-68
2022/11/29 06:51:04;;;;;;;;;;;;;;;8.49;91.40;100276.84;5003249;28;19952;-71
2022/11/29 06:53:42;;;;;;;;;;;;;;;8.27;92.68;100267.28;5005507;28;19941;-71
2022/11/29 06:56:07;;;;;;;;;;;;;;;8.32;92.53;100273.88;5006932;28;19945;-68
2022/11/29 06:58:33;;;;;;;;;;;;;;;8.24;92.63;100281.59;5017129;28;19965;-67
2022/11/29 07:01:10;;;;;;;;;;;;;;;8.48;92.13;100283.09;4987326;28;19969;-71
2022/11/29 07:03:53;;;;;;;;;;;;;;;8.56;91.93;100280.63;5003704;28;19925;-70
2022/11/29 07:06:23;;;;;;;;;;;;;;;8.65;91.18;100279.81;4993012;28;20202;-71
2022/11/29 07:08:58;;;;;;;;;;;;;;;8.73;90.93;100279.13;5005914;28;20191;-70
2022/11/29 07:11:23;;;;;;;;;;;;;;;8.75;91.13;100283.28;5016272;28;19944;-67
2022/11/29 07:13:49;;;;;;;;;;;;;;;8.71;91.42;100278.41;5005048;28;19914;-71
2022/11/29 07:16:14;;;;;;;;;;;;;;;8.95;89.66;100278.84;4989968;28;19922;-67
2022/11/29 07:18:58;;;;;;;;;;;;;;;8.43;91.49;100246.56;5005037;28;19913;-71
2022/11/29 07:21:23;;;;;;;;;;;;;;;8.69;92.27;100283.84;5004696;28;19984;-68
2022/11/29 07:24:01;;;;;;;;;;;;;;;8.71;91.36;100288.97;5004538;28;19921;-67
2022/11/29 07:26:26;;;;;;;;;;;;;;;8.72;91.94;100288.84;5010324;28;19913;-67
2022/11/29 07:29:20;;;;;;;;;;;;;;;8.75;91.86;100287.72;5013052;28;20286;-71
2022/11/29 07:31:59;;;;;;;;;;;;;;;8.57;92.09;100288.41;4992760;28;19919;-70
2022/11/29 07:34:43;;;;;;;;;;;;;;;8.79;91.62;100283.84;5003920;28;19924;-67
2022/11/29 07:37:20;;;;;;;;;;;;;;;8.62;92.39;100286.19;5004136;28;19926;-71
2022/11/29 07:39:55;;;;;;;;;;;;;;;8.68;91.80;100283.97;5004356;28;19910;-67
2022/11/29 07:42:20;;;;;;;;;;;;;;;8.65;92.45;100285.09;5004293;28;19913;-72
2022/11/29 07:45:04;;;;;;;;;;;;;;;8.79;92.61;100282.03;4988741;28;19952;-68
2022/11/29 07:47:29;;;;;;;;;;;;;;;8.79;92.13;100283.84;4992736;28;19918;-71
2022/11/29 07:49:54;;;;;;;;;;;;;;;8.79;92.29;100281.22;5001100;28;19964;-71
2022/11/29 07:52:20;;;;;;;;;;;;;;;8.77;92.77;100281.34;5016039;28;19918;-71
2022/11/29 07:54:45;;;;;;;;;;;;;;;8.81;92.37;100279.25;5010492;28;20143;-70
2022/11/29 07:57:10;;;;;;;;;;;;;;;8.83;92.83;100286.06;5005955;28;19952;-66
2022/11/29 07:59:36;;;;;;;;;;;;;;;8.99;92.51;100271.50;5003138;28;19913;-71
2022/11/29 08:02:01;;;;;;;;;;;;;;;9.09;92.47;100285.53;5003526;28;19914;-70
2022/11/29 08:04:27;;;;;;;;;;;;;;;8.96;92.84;100286.63;5003371;28;19914;-67
2022/11/29 08:06:52;;;;;;;;;;;;;;;8.73;94.22;100295.78;5003568;28;19921;-67
2022/11/29 08:09:17;;;;;;;;;;;;;;;8.75;94.91;100285.94;5014331;28;19913;-71
2022/11/29 08:11:43;;;;;;;;;;;;;;;9.05;93.98;100290.25;5003634;28;19910;-67
2022/11/29 08:14:09;;;;;;;;;;;;;;;8.72;93.71;100254.53;5004220;28;19963;-69
2022/11/29 08:16:34;;;;;;;;;;;;;;;8.81;93.68;100293.31;5011180;28;20239;-70
2022/11/29 08:19:00;;;;;;;;;;;;;;;8.86;93.44;100292.88;4986826;28;20127;-71
2022/11/29 08:21:25;;;;;;;;;;;;;;;8.88;93.21;100288.31;5012619;28;19913;-70
2022/11/29 08:23:50;;;;;;;;;;;;;;;8.92;92.23;100290.53;5007918;28;20065;-67
2022/11/29 08:26:17;;;;;;;;;;;;;;;8.91;92.70;100291.50;5005082;28;19913;-71
2022/11/29 08:28:42;;;;;;;;;;;;;;;9.01;92.55;100288.03;4987673;28;19948;-70
2022/11/29 08:31:09;;;;;;;;;;;;;;;8.98;93.14;100293.59;5004588;28;19925;-67
2022/11/29 08:33:35;;;;;;;;;;;;;;;9.02;93.09;100287.06;5005399;28;20239;-67
2022/11/29 08:36:19;;;;;;;;;;;;;;;9.22;93.02;100284.28;5004044;28;19924;-72
2022/11/29 08:38:45;;;;;;;;;;;;;;;9.16;93.53;100284.00;5006769;28;19949;-67
2022/11/29 08:41:12;;;;;;;;;;;;;;;9.26;93.56;100292.75;5006271;28;19917;-67
2022/11/29 08:43:37;;;;;;;;;;;;;;;9.22;93.13;100289.56;5005541;28;19918;-70
2022/11/29 08:46:03;;;;;;;;;;;;;;;9.21;93.15;100279.13;5005014;28;19976;-67
2022/11/29 08:48:28;;;;;;;;;;;;;;;9.23;93.18;100283.31;5005531;28;19924;-68
2022/11/29 08:50:54;;;;;;;;;;;;;;;9.34;93.19;100282.31;5004514;28;19914;-67
2022/11/29 08:56:04;;;;;;;;;;;;;;;9.43;91.90;100273.56;5004357;28;19952;-71
2022/11/29 08:58:29;;;;;;;;;;;;;;;9.16;91.71;100276.06;5006541;28;19925;-70
2022/11/29 09:00:55;;;;;;;;;;;;;;;9.32;91.17;100271.06;5005007;28;19914;-70
2022/11/29 09:06:06;;;;;;;;;;;;;;;9.19;92.17;100275.78;5004800;28;19952;-67
2022/11/29 09:08:31;;;;;;;;;;;;;;;9.29;92.97;100273.97;5003259;28;19913;-67
2022/11/29 09:10:56;;;;;;;;;;;;;;;9.48;92.26;100265.22;5005351;28;19936;-70
2022/11/29 09:13:22;;;;;;;;;;;;;;;9.49;91.73;100266.88;5004007;28;19985;-71
2022/11/29 09:15:47;;;;;;;;;;;;;;;9.39;91.49;100258.97;5004877;28;19921;-71
2022/11/29 09:18:12;;;;;;;;;;;;;;;9.73;90.80;100254.00;5003861;28;19918;-67
2022/11/29 09:20:40;;;;;;;;;;;;;;;9.85;90.07;100257.31;5009471;28;19913;-67
2022/11/29 09:23:05;;;;;;;;;;;;;;;9.69;89.00;100252.63;5009147;28;19925;-69
2022/11/29 09:25:31;;;;;;;;;;;;;;;9.77;88.38;100249.28;5008559;28;19913;-67
2022/11/29 09:27:57;;;;;;;;;;;;;;;9.59;88.99;100236.81;5010400;28;19924;-70
2022/11/29 09:30:22;;;;;;;;;;;;;;;9.75;88.73;100244.13;5007237;28;19921;-68
2022/11/29 09:32:47;;;;;;;;;;;;;;;9.79;88.89;100232.28;5010980;28;19917;-71
2022/11/29 09:35:13;;;;;;;;;;;;;;;9.96;88.63;100229.84;5006506;28;19973;-70
2022/11/29 09:37:42;;;;;;;;;;;;;;;9.91;89.12;100222.34;5023039;28;19963;-68
2022/11/29 09:40:14;;;;;;;;;;;;;;;9.90;88.40;100215.38;5015697;28;20782;-68
2022/11/29 09:42:43;;;;;;;;;;;;;;;10.06;87.56;100215.59;5008950;28;19967;-67
2022/11/29 09:45:30;;;;;;;;;;;;;;;10.02;87.79;100208.09;5015091;28;20338;-68
2022/11/29 09:48:04;;;;;;;;;;;;;;;9.92;86.79;100205.50;5008441;28;20077;-68
2022/11/29 09:50:34;;;;;;;;;;;;;;;9.84;89.15;100208.03;5013243;28;19913;-71
2022/11/29 09:53:08;;;;;;;;;;;;;;;9.92;89.24;100210.78;5007797;28;19918;-70
2022/11/29 09:55:54;;;;;;;;;;;;;;;9.86;90.23;100206.91;5024558;28;19913;-67
2022/11/29 09:58:22;;;;;;;;;;;;;;;9.73;90.75;100203.78;5005991;28;20187;-67
2022/11/29 10:00:48;;;;;;;;;;;;;;;9.73;91.39;100208.22;5012315;28;19914;-67
2022/11/29 10:03:50;;;;;;;;;;;;;;;9.90;90.76;100205.63;5005806;28;19956;-67
2022/11/29 10:06:27;;;;;;;;;;;;;;;9.85;91.24;100207.06;4945141;29;19937;-67
2022/11/29 10:09:07;;;;;;;;;;;;;;;10.07;89.96;100205.84;5011013;28;19917;-70
2022/11/29 10:11:52;;;;;;;;;;;;;;;10.14;87.81;100206.91;5009579;28;19961;-67
2022/11/29 10:14:30;;;;;;;;;;;;;;;10.08;88.79;100205.69;5013050;28;19925;-67
2022/11/29 10:17:12;;;;;;;;;;;;;;;10.11;90.09;100200.09;5005750;28;19937;-68
2022/11/29 10:19:47;;;;;;;;;;;;;;;10.22;88.65;100207.88;5011734;28;19988;-67
2022/11/29 10:22:12;;;;;;;;;;;;;;;10.08;89.53;100205.69;5005240;28;19949;-70
2022/11/29 10:24:40;;;;;;;;;;;;;;;10.20;89.29;100201.06;5005389;28;19913;-67
2022/11/29 10:27:14;;;;;;;;;;;;;;;10.08;89.33;100191.63;5006575;28;19914;-68
2022/11/29 10:29:39;;;;;;;;;;;;;;;10.14;89.67;100196.31;5013156;28;19913;-68
2022/11/29 10:32:10;;;;;;;;;;;;;;;10.15;89.36;100192.69;5004925;28;19920;-72
2022/11/29 10:34:35;;;;;;;;;;;;;;;9.99;90.94;100195.16;5015340;28;19914;-67
2022/11/29 10:37:01;;;;;;;;;;;;;;;10.14;90.73;100194.50;5010602;28;20033;-71
2022/11/29 10:39:26;;;;;;;;;;;;;;;10.14;90.21;100198.97;5005669;28;20162;-71
2022/11/29 10:41:56;;;;;;;;;;;;;;;10.27;90.10;100185.41;5005518;28;19920;-70
2022/11/29 10:44:21;;;;;;;;;;;;;;;10.16;90.09;100194.38;5006571;28;19972;-71
2022/11/29 10:46:47;;;;;;;;;;;;;;;10.30;89.19;100191.25;4989366;28;19913;-70
2022/11/29 10:49:14;;;;;;;;;;;;;;;10.25;89.52;100188.22;5007961;28;19936;-71
2022/11/29 10:51:40;;;;;;;;;;;;;;;10.37;88.99;100187.00;5007923;28;19914;-71
2022/11/29 10:54:25;;;;;;;;;;;;;;;10.16;89.45;100181.97;4990227;28;20114;-67
2022/11/29 10:56:50;;;;;;;;;;;;;;;10.21;89.72;100184.19;5000184;28;20036;-66
2022/11/29 10:59:23;;;;;;;;;;;;;;;9.96;90.43;100184.88;4999438;28;20317;-72
2022/11/29 11:01:49;;;;;;;;;;;;;;;10.03;89.11;100180.66;4991512;28;19921;-70
2022/11/29 11:04:35;;;;;;;;;;;;;;;10.12;89.45;100187.69;4999791;28;20143;-70
2022/11/29 11:07:01;;;;;;;;;;;;;;;10.07;90.84;100180.22;5007842;28;19913;-67
2022/11/29 11:09:26;;;;;;;;;;;;;;;10.04;91.65;100182.31;5008185;28;19932;-68
2022/11/29 11:11:53;;;;;;;;;;;;;;;10.18;91.55;100181.81;5006797;28;20179;-67
2022/11/29 11:14:23;;;;;;;;;;;;;;;10.09;91.47;100180.06;5007646;28;20683;-66
2022/11/29 11:16:48;;;;;;;;;;;;;;;9.88;91.43;100167.91;5008422;28;19925;-67
2022/11/29 11:19:20;;;;;;;;;;;;;;;9.90;90.99;100173.91;5008209;28;20120;-66
2022/11/29 11:21:45;;;;;;;;;;;;;;;10.07;90.89;100171.44;5006624;28;19913;-67
2022/11/29 11:24:20;;;;;;;;;;;;;;;10.19;91.53;100173.72;5006843;28;19961;-67
2022/11/29 11:26:45;;;;;;;;;;;;;;;10.24;89.04;100173.31;5008598;28;19913;-69
2022/11/29 11:29:23;;;;;;;;;;;;;;;10.31;90.95;100168.25;4999014;28;20249;-66
2022/11/29 11:31:53;;;;;;;;;;;;;;;10.13;90.15;100168.19;5006921;28;19914;-70
2022/11/29 11:34:22;;;;;;;;;;;;;;;10.22;90.08;100170.81;5006050;28;19917;-70
2022/11/29 11:36:47;;;;;;;;;;;;;;;10.23;90.22;100166.34;5009768;28;19914;-67
2022/11/29 11:39:18;;;;;;;;;;;;;;;10.16;91.04;100162.59;5005623;28;19925;-69
2022/11/29 11:44:52;;;;;;;;;;;;;;;10.11;92.15;100165.69;5006483;28;19956;-66
2022/11/29 11:47:31;;;;;;;;;;;;;;;10.29;91.29;100152.53;5007323;28;20111;-67
2022/11/29 11:50:01;;;;;;;;;;;;;;;10.28;90.40;100164.09;5010688;28;19913;-70
2022/11/29 11:52:35;;;;;;;;;;;;;;;10.18;89.78;100158.00;5001245;28;19918;-67
2022/11/29 11:55:04;;;;;;;;;;;;;;;9.99;91.48;100164.25;5003138;28;19921;-71
2022/11/29 11:57:30;;;;;;;;;;;;;;;10.12;92.40;100164.72;5001615;28;19997;-67
2022/11/29 11:59:56;;;;;;;;;;;;;;;10.10;92.61;100161.38;5011933;28;20118;-69
2022/11/29 12:02:36;;;;;;;;;;;;;;;10.21;91.21;100163.84;4992439;28;19981;-67
2022/11/29 12:05:03;;;;;;;;;;;;;;;10.40;89.06;100162.06;5011115;28;19966;-67
2022/11/29 12:07:42;;;;;;;;;;;;;;;10.47;89.34;100160.50;5006108;28;19937;-66
2022/11/29 12:10:14;;;;;;;;;;;;;;;10.33;90.01;100155.69;5010854;28;20111;-67
2022/11/29 12:12:40;;;;;;;;;;;;;;;10.45;89.89;100149.22;5004261;28;19988;-70
2022/11/29 12:15:10;;;;;;;;;;;;;;;10.21;90.16;100153.28;5003332;28;19913;-70
2022/11/29 12:17:39;;;;;;;;;;;;;;;10.40;90.40;100154.97;5008084;28;19925;-67
2022/11/29 12:20:16;;;;;;;;;;;;;;;10.41;90.29;100156.66;5003694;28;19991;-70
2022/11/29 12:22:49;;;;;;;;;;;;;;;10.21;91.04;100155.09;5015449;28;19921;-67
2022/11/29 12:25:37;;;;;;;;;;;;;;;10.24;89.62;100149.50;5006760;28;19960;-67
2022/11/29 12:28:04;;;;;;;;;;;;;;;10.16;91.05;100157.31;5012873;28;19918;-68
2022/11/29 12:30:30;;;;;;;;;;;;;;;10.33;91.13;100158.34;5007392;28;19914;-70
2022/11/29 12:33:14;;;;;;;;;;;;;;;10.27;90.76;100151.00;5014258;28;19948;-71
2022/11/29 12:35:45;;;;;;;;;;;;;;;10.14;90.87;100154.00;5006534;28;19984;-72
2022/11/29 12:38:17;;;;;;;;;;;;;;;10.22;91.42;100156.75;5013539;28;19925;-67
2022/11/29 12:40:49;;;;;;;;;;;;;;;10.23;92.03;100155.78;5006636;28;19913;-70
2022/11/29 12:43:45;;;;;;;;;;;;;;;10.16;92.93;100158.16;5001286;28;19932;-66
2022/11/29 12:46:14;;;;;;;;;;;;;;;10.30;91.25;100156.84;5011017;28;20213;-71
2022/11/29 12:48:55;;;;;;;;;;;;;;;10.41;90.82;100158.47;5005548;28;19921;-70
2022/11/29 12:51:29;;;;;;;;;;;;;;;10.12;91.73;100167.38;5009538;28;19940;-66
2022/11/29 12:53:54;;;;;;;;;;;;;;;9.95;92.96;100156.75;5003629;28;19921;-67
2022/11/29 12:56:23;;;;;;;;;;;;;;;10.12;93.18;100166.53;5005482;28;20273;-71
2022/11/29 12:58:48;;;;;;;;;;;;;;;10.09;93.00;100161.53;5006544;28;19965;-71
2022/11/29 13:01:29;;;;;;;;;;;;;;;10.06;93.12;100154.72;5017570;28;20139;-67
2022/11/29 13:04:29;;;;;;;;;;;;;;;10.01;92.93;100157.00;5008119;28;19929;-67
2022/11/29 13:07:01;;;;;;;;;;;;;;;10.09;93.66;100161.53;4944982;29;19922;-70
2022/11/29 13:09:27;;;;;;;;;;;;;;;10.14;93.94;100157.47;4980327;28;19920;-68
2022/11/29 13:12:00;;;;;;;;;;;;;;;9.99;94.08;100155.47;5005897;28;19985;-71
2022/11/29 13:14:26;;;;;;;;;;;;;;;9.99;94.25;100156.31;5008478;28;20146;-67
2022/11/29 13:16:55;;;;;;;;;;;;;;;10.05;94.32;100155.72;5008843;28;19959;-67